Weather at Francis S Gabreski Airport

Public forecast

Using degrees Fahrenheit for public forecast. Weather courtesy of forecast.io.

Current aviation weather report (METAR) for Francis S Gabreski Airport

Retrieved 2020/09/21 13:53 UTC (1 hour ago):

KFOK 211353Z 04011KT 10SM CLR 15/06 A3057 RMK AO2 SLP351 T01500056

Closest aviation forecast (TAF) to Francis S Gabreski Airport

Closest forecast is Long Island Mac Arthur Airport, 21.5 nm (39.8 km) W. Retrieved 2020/09/21 12:30 UTC (2 hours ago):

TAF KISP 211128Z 2112/2212 05007KT P6SM FEW250 FM211300 04012G22KT P6SM FEW250 FM212100 05010KT P6SM FEW250 FM220500 02005KT P6SM SKC FM220900 35007KT P6SM SKC